sensor_id;sensor_type;location;lat;lon;timestamp;P1;durP1;ratioP1;P2;durP2;ratioP2
25922;SDS011;13725;51.170;4.442;2023-01-29T00:01:28;60.25;;;24.98;;
25922;SDS011;13725;51.170;4.442;2023-01-29T00:03:54;53.40;;;24.63;;
25922;SDS011;13725;51.170;4.442;2023-01-29T00:06:21;56.85;;;24.15;;
25922;SDS011;13725;51.170;4.442;2023-01-29T00:08:49;55.20;;;23.58;;
25922;SDS011;13725;51.170;4.442;2023-01-29T00:11:15;52.05;;;23.13;;
25922;SDS011;13725;51.170;4.442;2023-01-29T00:13:42;63.67;;;26.00;;
25922;SDS011;13725;51.170;4.442;2023-01-29T00:16:08;61.63;;;24.08;;
25922;SDS011;13725;51.170;4.442;2023-01-29T00:18:37;51.97;;;23.80;;
25922;SDS011;13725;51.170;4.442;2023-01-29T00:21:10;55.90;;;23.88;;
25922;SDS011;13725;51.170;4.442;2023-01-29T00:23:37;55.28;;;23.13;;
25922;SDS011;13725;51.170;4.442;2023-01-29T00:26:03;56.35;;;22.65;;
25922;SDS011;13725;51.170;4.442;2023-01-29T00:28:29;53.83;;;24.00;;
25922;SDS011;13725;51.170;4.442;2023-01-29T00:30:55;56.88;;;24.25;;
25922;SDS011;13725;51.170;4.442;2023-01-29T00:33:20;56.80;;;24.33;;
25922;SDS011;13725;51.170;4.442;2023-01-29T00:35:46;62.30;;;25.75;;
25922;SDS011;13725;51.170;4.442;2023-01-29T00:38:11;60.67;;;24.40;;
25922;SDS011;13725;51.170;4.442;2023-01-29T00:40:37;55.33;;;24.35;;
25922;SDS011;13725;51.170;4.442;2023-01-29T00:43:23;57.22;;;24.10;;
25922;SDS011;13725;51.170;4.442;2023-01-29T00:46:07;55.20;;;23.67;;
25922;SDS011;13725;51.170;4.442;2023-01-29T00:48:33;56.25;;;23.80;;
25922;SDS011;13725;51.170;4.442;2023-01-29T00:51:00;53.53;;;24.30;;
25922;SDS011;13725;51.170;4.442;2023-01-29T00:53:27;51.53;;;23.80;;
25922;SDS011;13725;51.170;4.442;2023-01-29T00:55:53;65.20;;;27.10;;
25922;SDS011;13725;51.170;4.442;2023-01-29T00:58:19;59.42;;;26.00;;
25922;SDS011;13725;51.170;4.442;2023-01-29T01:00:47;57.47;;;26.33;;
25922;SDS011;13725;51.170;4.442;2023-01-29T01:03:13;59.85;;;27.30;;
25922;SDS011;13725;51.170;4.442;2023-01-29T01:05:40;63.75;;;27.20;;
25922;SDS011;13725;51.170;4.442;2023-01-29T01:08:07;63.05;;;27.48;;
25922;SDS011;13725;51.170;4.442;2023-01-29T01:11:01;64.45;;;27.55;;
25922;SDS011;13725;51.170;4.442;2023-01-29T01:13:30;61.30;;;25.17;;
25922;SDS011;13725;51.170;4.442;2023-01-29T01:15:57;58.47;;;25.05;;
25922;SDS011;13725;51.170;4.442;2023-01-29T01:18:23;63.50;;;27.58;;
25922;SDS011;13725;51.170;4.442;2023-01-29T01:20:49;63.08;;;28.20;;
25922;SDS011;13725;51.170;4.442;2023-01-29T01:23:25;61.05;;;26.65;;
25922;SDS011;13725;51.170;4.442;2023-01-29T01:25:52;60.60;;;26.73;;
25922;SDS011;13725;51.170;4.442;2023-01-29T01:28:17;60.47;;;25.77;;
25922;SDS011;13725;51.170;4.442;2023-01-29T01:30:45;65.10;;;28.55;;
25922;SDS011;13725;51.170;4.442;2023-01-29T01:33:11;60.30;;;27.15;;
25922;SDS011;13725;51.170;4.442;2023-01-29T01:35:37;64.55;;;27.58;;
25922;SDS011;13725;51.170;4.442;2023-01-29T01:38:05;60.08;;;25.75;;
25922;SDS011;13725;51.170;4.442;2023-01-29T01:40:31;61.22;;;26.77;;
25922;SDS011;13725;51.170;4.442;2023-01-29T01:42:58;64.93;;;28.45;;
25922;SDS011;13725;51.170;4.442;2023-01-29T01:45:42;66.00;;;27.25;;
25922;SDS011;13725;51.170;4.442;2023-01-29T01:48:16;57.58;;;26.45;;
25922;SDS011;13725;51.170;4.442;2023-01-29T01:50:59;59.20;;;26.75;;
25922;SDS011;13725;51.170;4.442;2023-01-29T01:53:34;60.83;;;25.40;;
25922;SDS011;13725;51.170;4.442;2023-01-29T01:56:04;62.63;;;25.77;;
25922;SDS011;13725;51.170;4.442;2023-01-29T01:58:36;56.30;;;26.15;;
25922;SDS011;13725;51.170;4.442;2023-01-29T02:01:05;60.80;;;28.58;;
25922;SDS011;13725;51.170;4.442;2023-01-29T02:03:34;61.78;;;27.55;;
25922;SDS011;13725;51.170;4.442;2023-01-29T02:06:25;66.82;;;27.05;;
25922;SDS011;13725;51.170;4.442;2023-01-29T02:09:15;64.78;;;27.58;;
25922;SDS011;13725;51.170;4.442;2023-01-29T02:12:06;64.10;;;26.42;;
25922;SDS011;13725;51.170;4.442;2023-01-29T02:14:34;67.80;;;27.80;;
25922;SDS011;13725;51.170;4.442;2023-01-29T02:17:04;64.45;;;28.15;;
25922;SDS011;13725;51.170;4.442;2023-01-29T02:19:37;60.72;;;27.38;;
25922;SDS011;13725;51.170;4.442;2023-01-29T02:30:49;66.15;;;28.17;;
25922;SDS011;13725;51.170;4.442;2023-01-29T02:36:08;60.15;;;27.17;;
25922;SDS011;13725;51.170;4.442;2023-01-29T02:41:12;60.20;;;26.80;;
25922;SDS011;13725;51.170;4.442;2023-01-29T02:44:05;59.78;;;26.67;;
25922;SDS011;13725;51.170;4.442;2023-01-29T02:46:45;62.55;;;26.00;;
25922;SDS011;13725;51.170;4.442;2023-01-29T02:52:10;57.10;;;26.77;;
25922;SDS011;13725;51.170;4.442;2023-01-29T02:54:57;59.25;;;25.58;;
25922;SDS011;13725;51.170;4.442;2023-01-29T02:57:29;55.88;;;26.85;;
25922;SDS011;13725;51.170;4.442;2023-01-29T03:02:35;62.60;;;27.00;;
25922;SDS011;13725;51.170;4.442;2023-01-29T03:05:17;60.20;;;26.35;;
25922;SDS011;13725;51.170;4.442;2023-01-29T03:07:51;61.38;;;26.73;;
25922;SDS011;13725;51.170;4.442;2023-01-29T03:13:28;58.10;;;25.85;;
25922;SDS011;13725;51.170;4.442;2023-01-29T03:16:05;60.45;;;26.52;;
25922;SDS011;13725;51.170;4.442;2023-01-29T03:18:41;60.78;;;25.38;;
25922;SDS011;13725;51.170;4.442;2023-01-29T03:21:13;58.42;;;25.10;;
25922;SDS011;13725;51.170;4.442;2023-01-29T03:24:01;54.85;;;25.20;;
25922;SDS011;13725;51.170;4.442;2023-01-29T03:26:50;58.20;;;24.85;;
25922;SDS011;13725;51.170;4.442;2023-01-29T03:29:40;55.78;;;24.52;;
25922;SDS011;13725;51.170;4.442;2023-01-29T03:32:40;59.90;;;26.08;;
25922;SDS011;13725;51.170;4.442;2023-01-29T03:35:09;61.47;;;25.67;;
25922;SDS011;13725;51.170;4.442;2023-01-29T03:37:44;54.50;;;23.52;;
25922;SDS011;13725;51.170;4.442;2023-01-29T03:40:12;59.22;;;25.25;;
25922;SDS011;13725;51.170;4.442;2023-01-29T03:48:29;63.55;;;24.60;;
25922;SDS011;13725;51.170;4.442;2023-01-29T03:50:51;57.58;;;24.20;;
25922;SDS011;13725;51.170;4.442;2023-01-29T03:56:23;59.22;;;24.35;;
25922;SDS011;13725;51.170;4.442;2023-01-29T04:02:17;60.97;;;24.45;;
25922;SDS011;13725;51.170;4.442;2023-01-29T04:04:57;62.08;;;25.75;;
25922;SDS011;13725;51.170;4.442;2023-01-29T04:07:27;54.60;;;23.00;;
25922;SDS011;13725;51.170;4.442;2023-01-29T04:10:08;55.78;;;24.42;;
25922;SDS011;13725;51.170;4.442;2023-01-29T04:12:45;61.42;;;24.10;;
25922;SDS011;13725;51.170;4.442;2023-01-29T04:15:24;59.63;;;24.33;;
25922;SDS011;13725;51.170;4.442;2023-01-29T04:17:54;62.78;;;26.15;;
25922;SDS011;13725;51.170;4.442;2023-01-29T04:20:36;60.55;;;24.55;;
25922;SDS011;13725;51.170;4.442;2023-01-29T04:23:04;59.08;;;24.30;;
25922;SDS011;13725;51.170;4.442;2023-01-29T04:25:33;58.20;;;24.75;;
25922;SDS011;13725;51.170;4.442;2023-01-29T04:28:25;60.20;;;24.92;;
25922;SDS011;13725;51.170;4.442;2023-01-29T04:31:06;62.80;;;24.23;;
25922;SDS011;13725;51.170;4.442;2023-01-29T04:39:17;59.45;;;23.42;;
25922;SDS011;13725;51.170;4.442;2023-01-29T04:44:23;60.67;;;24.70;;
25922;SDS011;13725;51.170;4.442;2023-01-29T04:47:04;66.03;;;24.42;;
25922;SDS011;13725;51.170;4.442;2023-01-29T04:49:48;57.70;;;25.17;;
25922;SDS011;13725;51.170;4.442;2023-01-29T05:00:39;58.75;;;23.25;;
25922;SDS011;13725;51.170;4.442;2023-01-29T05:03:11;65.43;;;23.65;;
25922;SDS011;13725;51.170;4.442;2023-01-29T05:05:39;63.92;;;23.67;;
25922;SDS011;13725;51.170;4.442;2023-01-29T05:08:08;62.80;;;24.83;;
25922;SDS011;13725;51.170;4.442;2023-01-29T05:10:37;62.00;;;25.25;;
25922;SDS011;13725;51.170;4.442;2023-01-29T05:13:04;61.78;;;24.52;;
25922;SDS011;13725;51.170;4.442;2023-01-29T05:15:38;56.42;;;22.92;;
25922;SDS011;13725;51.170;4.442;2023-01-29T05:18:08;58.55;;;22.38;;
25922;SDS011;13725;51.170;4.442;2023-01-29T05:20:35;58.00;;;22.42;;
25922;SDS011;13725;51.170;4.442;2023-01-29T05:23:03;63.80;;;25.90;;
25922;SDS011;13725;51.170;4.442;2023-01-29T05:25:30;60.15;;;24.20;;
25922;SDS011;13725;51.170;4.442;2023-01-29T05:27:57;55.40;;;23.77;;
25922;SDS011;13725;51.170;4.442;2023-01-29T05:30:36;58.38;;;23.33;;
25922;SDS011;13725;51.170;4.442;2023-01-29T05:33:04;60.63;;;23.15;;
25922;SDS011;13725;51.170;4.442;2023-01-29T05:35:36;66.57;;;25.08;;
25922;SDS011;13725;51.170;4.442;2023-01-29T05:38:01;53.10;;;22.80;;
25922;SDS011;13725;51.170;4.442;2023-01-29T05:40:27;59.60;;;24.15;;
25922;SDS011;13725;51.170;4.442;2023-01-29T05:42:53;65.80;;;26.77;;
25922;SDS011;13725;51.170;4.442;2023-01-29T05:45:19;57.50;;;24.33;;
25922;SDS011;13725;51.170;4.442;2023-01-29T05:47:45;60.97;;;24.15;;
25922;SDS011;13725;51.170;4.442;2023-01-29T05:50:11;60.83;;;23.98;;
25922;SDS011;13725;51.170;4.442;2023-01-29T05:52:38;55.75;;;24.08;;
25922;SDS011;13725;51.170;4.442;2023-01-29T05:55:05;61.58;;;24.63;;
25922;SDS011;13725;51.170;4.442;2023-01-29T05:57:31;61.40;;;24.13;;
25922;SDS011;13725;51.170;4.442;2023-01-29T05:59:57;58.17;;;23.90;;
25922;SDS011;13725;51.170;4.442;2023-01-29T06:02:22;56.72;;;24.42;;
25922;SDS011;13725;51.170;4.442;2023-01-29T06:04:49;59.78;;;23.25;;
25922;SDS011;13725;51.170;4.442;2023-01-29T06:07:16;55.88;;;22.58;;
25922;SDS011;13725;51.170;4.442;2023-01-29T06:09:42;58.28;;;23.55;;
25922;SDS011;13725;51.170;4.442;2023-01-29T06:12:08;56.20;;;22.52;;
25922;SDS011;13725;51.170;4.442;2023-01-29T06:14:34;54.78;;;22.20;;
25922;SDS011;13725;51.170;4.442;2023-01-29T06:16:59;57.28;;;23.13;;
25922;SDS011;13725;51.170;4.442;2023-01-29T06:19:28;58.03;;;23.65;;
25922;SDS011;13725;51.170;4.442;2023-01-29T06:21:53;58.65;;;22.13;;
25922;SDS011;13725;51.170;4.442;2023-01-29T06:24:19;56.60;;;22.80;;
25922;SDS011;13725;51.170;4.442;2023-01-29T06:26:45;60.65;;;23.67;;
25922;SDS011;13725;51.170;4.442;2023-01-29T06:29:10;52.55;;;22.45;;
25922;SDS011;13725;51.170;4.442;2023-01-29T06:31:36;57.38;;;23.15;;
25922;SDS011;13725;51.170;4.442;2023-01-29T06:34:01;60.15;;;23.35;;
25922;SDS011;13725;51.170;4.442;2023-01-29T06:36:28;61.25;;;21.98;;
25922;SDS011;13725;51.170;4.442;2023-01-29T06:38:54;59.92;;;23.40;;
25922;SDS011;13725;51.170;4.442;2023-01-29T06:41:20;56.47;;;22.35;;
25922;SDS011;13725;51.170;4.442;2023-01-29T06:43:49;59.28;;;22.80;;
25922;SDS011;13725;51.170;4.442;2023-01-29T06:46:15;55.25;;;23.40;;
25922;SDS011;13725;51.170;4.442;2023-01-29T06:48:41;54.55;;;22.70;;
25922;SDS011;13725;51.170;4.442;2023-01-29T06:51:09;56.85;;;24.15;;
25922;SDS011;13725;51.170;4.442;2023-01-29T06:53:36;59.05;;;22.48;;
25922;SDS011;13725;51.170;4.442;2023-01-29T06:56:03;55.72;;;23.42;;
25922;SDS011;13725;51.170;4.442;2023-01-29T06:58:29;56.72;;;23.88;;
25922;SDS011;13725;51.170;4.442;2023-01-29T07:01:05;57.22;;;23.52;;
25922;SDS011;13725;51.170;4.442;2023-01-29T07:03:33;63.60;;;24.63;;
25922;SDS011;13725;51.170;4.442;2023-01-29T07:05:59;55.60;;;23.77;;
25922;SDS011;13725;51.170;4.442;2023-01-29T07:08:25;59.88;;;22.73;;
25922;SDS011;13725;51.170;4.442;2023-01-29T07:10:52;66.20;;;24.20;;
25922;SDS011;13725;51.170;4.442;2023-01-29T07:13:18;57.03;;;23.17;;
25922;SDS011;13725;51.170;4.442;2023-01-29T07:15:43;59.45;;;24.65;;
25922;SDS011;13725;51.170;4.442;2023-01-29T07:18:09;57.40;;;23.67;;
25922;SDS011;13725;51.170;4.442;2023-01-29T07:20:40;62.13;;;23.10;;
25922;SDS011;13725;51.170;4.442;2023-01-29T07:23:13;53.40;;;21.75;;
25922;SDS011;13725;51.170;4.442;2023-01-29T07:25:39;59.65;;;22.63;;
25922;SDS011;13725;51.170;4.442;2023-01-29T07:28:05;54.95;;;22.05;;
25922;SDS011;13725;51.170;4.442;2023-01-29T07:30:31;56.38;;;23.40;;
25922;SDS011;13725;51.170;4.442;2023-01-29T07:33:04;49.08;;;22.15;;
25922;SDS011;13725;51.170;4.442;2023-01-29T07:35:35;56.92;;;21.90;;
25922;SDS011;13725;51.170;4.442;2023-01-29T07:38:05;58.50;;;22.85;;
25922;SDS011;13725;51.170;4.442;2023-01-29T07:40:32;59.20;;;22.73;;
25922;SDS011;13725;51.170;4.442;2023-01-29T07:42:58;58.58;;;22.50;;
25922;SDS011;13725;51.170;4.442;2023-01-29T07:45:26;52.83;;;21.27;;
25922;SDS011;13725;51.170;4.442;2023-01-29T07:47:52;53.80;;;22.70;;
25922;SDS011;13725;51.170;4.442;2023-01-29T07:50:20;57.40;;;21.92;;
25922;SDS011;13725;51.170;4.442;2023-01-29T07:52:46;55.75;;;22.98;;
25922;SDS011;13725;51.170;4.442;2023-01-29T07:55:12;52.72;;;22.30;;
25922;SDS011;13725;51.170;4.442;2023-01-29T07:57:37;55.75;;;22.98;;
25922;SDS011;13725;51.170;4.442;2023-01-29T08:00:03;55.35;;;22.48;;
25922;SDS011;13725;51.170;4.442;2023-01-29T08:02:37;55.63;;;22.77;;
25922;SDS011;13725;51.170;4.442;2023-01-29T08:05:06;51.38;;;21.13;;
25922;SDS011;13725;51.170;4.442;2023-01-29T08:07:32;56.80;;;23.83;;
25922;SDS011;13725;51.170;4.442;2023-01-29T08:09:58;59.92;;;22.75;;
25922;SDS011;13725;51.170;4.442;2023-01-29T08:12:23;56.00;;;21.48;;
25922;SDS011;13725;51.170;4.442;2023-01-29T08:14:49;57.30;;;24.17;;
25922;SDS011;13725;51.170;4.442;2023-01-29T08:17:15;58.05;;;23.90;;
25922;SDS011;13725;51.170;4.442;2023-01-29T08:19:40;55.58;;;22.70;;
25922;SDS011;13725;51.170;4.442;2023-01-29T08:22:06;55.60;;;22.48;;
25922;SDS011;13725;51.170;4.442;2023-01-29T08:24:32;54.47;;;22.58;;
25922;SDS011;13725;51.170;4.442;2023-01-29T08:26:57;55.33;;;23.02;;
25922;SDS011;13725;51.170;4.442;2023-01-29T08:29:23;53.33;;;22.45;;
25922;SDS011;13725;51.170;4.442;2023-01-29T08:31:49;54.35;;;24.23;;
25922;SDS011;13725;51.170;4.442;2023-01-29T08:34:14;55.65;;;23.80;;
25922;SDS011;13725;51.170;4.442;2023-01-29T08:36:40;50.70;;;21.83;;
25922;SDS011;13725;51.170;4.442;2023-01-29T08:39:06;50.92;;;22.17;;
25922;SDS011;13725;51.170;4.442;2023-01-29T08:41:31;48.58;;;20.48;;
25922;SDS011;13725;51.170;4.442;2023-01-29T08:43:57;52.42;;;22.33;;
25922;SDS011;13725;51.170;4.442;2023-01-29T08:46:27;47.42;;;19.58;;
25922;SDS011;13725;51.170;4.442;2023-01-29T08:48:53;52.22;;;22.42;;
25922;SDS011;13725;51.170;4.442;2023-01-29T08:51:23;55.63;;;22.52;;
25922;SDS011;13725;51.170;4.442;2023-01-29T08:53:50;52.33;;;21.27;;
25922;SDS011;13725;51.170;4.442;2023-01-29T08:56:15;52.85;;;21.48;;
25922;SDS011;13725;51.170;4.442;2023-01-29T08:58:41;49.85;;;19.60;;
25922;SDS011;13725;51.170;4.442;2023-01-29T09:01:08;54.33;;;21.30;;
25922;SDS011;13725;51.170;4.442;2023-01-29T09:03:34;52.70;;;21.55;;
25922;SDS011;13725;51.170;4.442;2023-01-29T09:06:00;54.40;;;20.83;;
25922;SDS011;13725;51.170;4.442;2023-01-29T09:08:28;52.40;;;20.77;;
25922;SDS011;13725;51.170;4.442;2023-01-29T09:10:55;49.80;;;20.20;;
25922;SDS011;13725;51.170;4.442;2023-01-29T09:13:23;48.40;;;19.13;;
25922;SDS011;13725;51.170;4.442;2023-01-29T09:15:49;48.63;;;20.30;;
25922;SDS011;13725;51.170;4.442;2023-01-29T09:18:14;49.13;;;20.23;;
25922;SDS011;13725;51.170;4.442;2023-01-29T09:20:40;47.30;;;20.58;;
25922;SDS011;13725;51.170;4.442;2023-01-29T09:23:07;45.35;;;20.38;;
25922;SDS011;13725;51.170;4.442;2023-01-29T09:25:33;49.13;;;20.33;;
25922;SDS011;13725;51.170;4.442;2023-01-29T09:27:59;43.72;;;19.27;;
25922;SDS011;13725;51.170;4.442;2023-01-29T09:30:25;51.58;;;20.23;;
25922;SDS011;13725;51.170;4.442;2023-01-29T09:32:51;44.85;;;19.83;;
25922;SDS011;13725;51.170;4.442;2023-01-29T09:35:16;49.88;;;21.08;;
25922;SDS011;13725;51.170;4.442;2023-01-29T09:37:45;48.28;;;18.52;;
25922;SDS011;13725;51.170;4.442;2023-01-29T09:40:57;47.80;;;19.23;;
25922;SDS011;13725;51.170;4.442;2023-01-29T09:43:12;44.40;;;19.48;;
25922;SDS011;13725;51.170;4.442;2023-01-29T09:45:59;48.58;;;19.80;;
25922;SDS011;13725;51.170;4.442;2023-01-29T09:48:29;50.00;;;20.63;;
25922;SDS011;13725;51.170;4.442;2023-01-29T09:50:58;44.97;;;19.88;;
25922;SDS011;13725;51.170;4.442;2023-01-29T09:53:39;47.05;;;19.77;;
25922;SDS011;13725;51.170;4.442;2023-01-29T09:56:12;52.80;;;21.05;;
25922;SDS011;13725;51.170;4.442;2023-01-29T09:58:41;46.83;;;20.30;;
25922;SDS011;13725;51.170;4.442;2023-01-29T10:12:33;46.50;;;20.80;;
25922;SDS011;13725;51.170;4.442;2023-01-29T10:20:57;53.35;;;23.15;;
25922;SDS011;13725;51.170;4.442;2023-01-29T10:23:26;49.63;;;21.75;;
25922;SDS011;13725;51.170;4.442;2023-01-29T10:25:54;52.35;;;22.15;;
25922;SDS011;13725;51.170;4.442;2023-01-29T10:31:04;49.50;;;20.85;;
25922;SDS011;13725;51.170;4.442;2023-01-29T10:36:06;48.08;;;21.58;;
25922;SDS011;13725;51.170;4.442;2023-01-29T10:38:47;47.13;;;20.55;;
25922;SDS011;13725;51.170;4.442;2023-01-29T10:41:21;45.13;;;21.77;;
25922;SDS011;13725;51.170;4.442;2023-01-29T11:02:46;50.58;;;22.48;;
25922;SDS011;13725;51.170;4.442;2023-01-29T11:05:33;50.97;;;22.00;;
25922;SDS011;13725;51.170;4.442;2023-01-29T11:08:15;46.28;;;21.42;;
25922;SDS011;13725;51.170;4.442;2023-01-29T11:10:51;45.70;;;21.20;;
25922;SDS011;13725;51.170;4.442;2023-01-29T11:13:21;49.35;;;21.33;;
25922;SDS011;13725;51.170;4.442;2023-01-29T11:15:50;44.45;;;20.88;;
25922;SDS011;13725;51.170;4.442;2023-01-29T11:18:17;41.88;;;20.42;;
25922;SDS011;13725;51.170;4.442;2023-01-29T11:20:43;46.22;;;20.63;;
25922;SDS011;13725;51.170;4.442;2023-01-29T11:23:26;48.05;;;21.23;;
25922;SDS011;13725;51.170;4.442;2023-01-29T11:25:55;45.13;;;22.08;;
25922;SDS011;13725;51.170;4.442;2023-01-29T11:28:41;46.80;;;20.27;;
25922;SDS011;13725;51.170;4.442;2023-01-29T11:33:45;43.55;;;20.08;;
25922;SDS011;13725;51.170;4.442;2023-01-29T11:41:47;45.33;;;19.83;;
25922;SDS011;13725;51.170;4.442;2023-01-29T11:47:08;40.95;;;20.02;;
25922;SDS011;13725;51.170;4.442;2023-01-29T11:49:47;42.15;;;19.27;;
25922;SDS011;13725;51.170;4.442;2023-01-29T11:52:15;41.70;;;19.38;;
25922;SDS011;13725;51.170;4.442;2023-01-29T11:57:23;43.10;;;19.02;;
25922;SDS011;13725;51.170;4.442;2023-01-29T12:00:02;36.28;;;18.48;;
25922;SDS011;13725;51.170;4.442;2023-01-29T12:02:36;44.70;;;18.88;;
25922;SDS011;13725;51.170;4.442;2023-01-29T12:05:15;44.20;;;18.80;;
25922;SDS011;13725;51.170;4.442;2023-01-29T12:07:43;43.40;;;19.38;;
25922;SDS011;13725;51.170;4.442;2023-01-29T12:10:29;40.33;;;18.17;;
25922;SDS011;13725;51.170;4.442;2023-01-29T12:13:05;37.70;;;19.15;;
25922;SDS011;13725;51.170;4.442;2023-01-29T12:15:38;38.38;;;17.92;;
25922;SDS011;13725;51.170;4.442;2023-01-29T12:20:59;43.10;;;18.58;;
25922;SDS011;13725;51.170;4.442;2023-01-29T12:23:33;38.45;;;17.40;;
25922;SDS011;13725;51.170;4.442;2023-01-29T12:34:12;34.35;;;17.95;;
25922;SDS011;13725;51.170;4.442;2023-01-29T12:36:51;35.63;;;17.05;;
25922;SDS011;13725;51.170;4.442;2023-01-29T12:41:54;39.83;;;16.88;;
25922;SDS011;13725;51.170;4.442;2023-01-29T12:44:35;39.50;;;16.38;;
25922;SDS011;13725;51.170;4.442;2023-01-29T12:47:53;34.97;;;16.67;;
25922;SDS011;13725;51.170;4.442;2023-01-29T12:50:13;33.20;;;16.17;;
25922;SDS011;13725;51.170;4.442;2023-01-29T12:53:46;35.67;;;16.02;;
25922;SDS011;13725;51.170;4.442;2023-01-29T12:56:14;32.20;;;17.02;;
25922;SDS011;13725;51.170;4.442;2023-01-29T12:58:50;37.65;;;16.75;;
25922;SDS011;13725;51.170;4.442;2023-01-29T13:01:26;34.60;;;17.17;;
25922;SDS011;13725;51.170;4.442;2023-01-29T13:06:30;33.83;;;16.30;;
25922;SDS011;13725;51.170;4.442;2023-01-29T13:09:07;36.80;;;18.55;;
25922;SDS011;13725;51.170;4.442;2023-01-29T13:11:54;35.47;;;16.42;;
25922;SDS011;13725;51.170;4.442;2023-01-29T13:14:53;31.50;;;16.60;;
25922;SDS011;13725;51.170;4.442;2023-01-29T13:17:32;33.58;;;15.63;;
25922;SDS011;13725;51.170;4.442;2023-01-29T13:22:55;35.45;;;17.33;;
25922;SDS011;13725;51.170;4.442;2023-01-29T13:25:25;31.85;;;15.30;;
25922;SDS011;13725;51.170;4.442;2023-01-29T13:27:51;33.17;;;15.75;;
25922;SDS011;13725;51.170;4.442;2023-01-29T13:30:29;30.33;;;14.77;;
25922;SDS011;13725;51.170;4.442;2023-01-29T13:32:57;36.08;;;16.60;;
25922;SDS011;13725;51.170;4.442;2023-01-29T13:35:37;31.67;;;15.65;;
25922;SDS011;13725;51.170;4.442;2023-01-29T13:38:05;36.85;;;16.42;;
25922;SDS011;13725;51.170;4.442;2023-01-29T13:40:50;30.00;;;14.80;;
25922;SDS011;13725;51.170;4.442;2023-01-29T13:43:25;29.65;;;13.73;;
25922;SDS011;13725;51.170;4.442;2023-01-29T13:45:54;28.08;;;15.13;;
25922;SDS011;13725;51.170;4.442;2023-01-29T13:48:25;33.63;;;15.95;;
25922;SDS011;13725;51.170;4.442;2023-01-29T13:50:55;32.83;;;15.43;;
25922;SDS011;13725;51.170;4.442;2023-01-29T13:53:27;33.53;;;16.10;;
25922;SDS011;13725;51.170;4.442;2023-01-29T13:58:57;34.10;;;15.88;;
25922;SDS011;13725;51.170;4.442;2023-01-29T14:01:59;34.53;;;16.55;;
25922;SDS011;13725;51.170;4.442;2023-01-29T14:04:23;31.75;;;14.55;;
25922;SDS011;13725;51.170;4.442;2023-01-29T14:06:53;34.40;;;15.98;;
25922;SDS011;13725;51.170;4.442;2023-01-29T14:12:02;35.78;;;15.23;;
25922;SDS011;13725;51.170;4.442;2023-01-29T14:17:20;30.55;;;14.68;;
25922;SDS011;13725;51.170;4.442;2023-01-29T14:19:50;32.40;;;15.52;;
25922;SDS011;13725;51.170;4.442;2023-01-29T14:22:19;31.83;;;16.42;;
25922;SDS011;13725;51.170;4.442;2023-01-29T14:24:59;29.42;;;14.90;;
25922;SDS011;13725;51.170;4.442;2023-01-29T14:27:30;34.42;;;15.38;;
25922;SDS011;13725;51.170;4.442;2023-01-29T14:29:58;31.83;;;14.57;;
25922;SDS011;13725;51.170;4.442;2023-01-29T14:32:30;30.95;;;14.32;;
25922;SDS011;13725;51.170;4.442;2023-01-29T14:37:34;32.50;;;15.18;;
25922;SDS011;13725;51.170;4.442;2023-01-29T14:40:17;30.52;;;14.43;;
25922;SDS011;13725;51.170;4.442;2023-01-29T14:45:34;30.45;;;15.13;;
25922;SDS011;13725;51.170;4.442;2023-01-29T14:48:04;30.20;;;14.13;;
25922;SDS011;13725;51.170;4.442;2023-01-29T14:55:34;32.88;;;15.02;;
25922;SDS011;13725;51.170;4.442;2023-01-29T14:58:14;29.88;;;14.70;;
25922;SDS011;13725;51.170;4.442;2023-01-29T15:00:44;29.73;;;14.25;;
25922;SDS011;13725;51.170;4.442;2023-01-29T15:03:57;35.08;;;17.15;;
25922;SDS011;13725;51.170;4.442;2023-01-29T15:06:18;31.10;;;15.05;;
25922;SDS011;13725;51.170;4.442;2023-01-29T15:08:55;33.45;;;15.90;;
25922;SDS011;13725;51.170;4.442;2023-01-29T15:14:23;33.10;;;14.60;;
25922;SDS011;13725;51.170;4.442;2023-01-29T15:19:50;32.00;;;14.32;;
25922;SDS011;13725;51.170;4.442;2023-01-29T15:22:18;34.03;;;15.85;;
25922;SDS011;13725;51.170;4.442;2023-01-29T15:24:45;31.67;;;13.82;;
25922;SDS011;13725;51.170;4.442;2023-01-29T15:27:25;31.40;;;15.25;;
25922;SDS011;13725;51.170;4.442;2023-01-29T15:29:54;31.33;;;14.32;;
25922;SDS011;13725;51.170;4.442;2023-01-29T15:32:35;30.15;;;14.20;;
25922;SDS011;13725;51.170;4.442;2023-01-29T15:35:08;33.55;;;15.90;;
25922;SDS011;13725;51.170;4.442;2023-01-29T15:37:47;37.75;;;15.38;;
25922;SDS011;13725;51.170;4.442;2023-01-29T15:40:23;32.88;;;15.60;;
25922;SDS011;13725;51.170;4.442;2023-01-29T15:42:49;34.50;;;15.50;;
25922;SDS011;13725;51.170;4.442;2023-01-29T15:45:27;37.72;;;15.45;;
25922;SDS011;13725;51.170;4.442;2023-01-29T15:48:02;31.35;;;14.52;;
25922;SDS011;13725;51.170;4.442;2023-01-29T15:50:34;35.17;;;16.07;;
25922;SDS011;13725;51.170;4.442;2023-01-29T15:53:05;29.95;;;14.57;;
25922;SDS011;13725;51.170;4.442;2023-01-29T15:55:36;36.92;;;17.23;;
25922;SDS011;13725;51.170;4.442;2023-01-29T15:58:03;39.47;;;16.55;;
25922;SDS011;13725;51.170;4.442;2023-01-29T16:00:29;35.55;;;15.70;;
25922;SDS011;13725;51.170;4.442;2023-01-29T16:02:55;36.10;;;16.63;;
25922;SDS011;13725;51.170;4.442;2023-01-29T16:05:26;37.03;;;16.13;;
25922;SDS011;13725;51.170;4.442;2023-01-29T16:07:54;35.97;;;16.50;;
25922;SDS011;13725;51.170;4.442;2023-01-29T16:10:28;40.13;;;16.55;;
25922;SDS011;13725;51.170;4.442;2023-01-29T16:12:55;44.30;;;16.90;;
25922;SDS011;13725;51.170;4.442;2023-01-29T16:15:26;37.83;;;16.67;;
25922;SDS011;13725;51.170;4.442;2023-01-29T16:17:55;39.45;;;17.15;;
25922;SDS011;13725;51.170;4.442;2023-01-29T16:20:30;37.85;;;16.95;;
25922;SDS011;13725;51.170;4.442;2023-01-29T16:22:58;35.65;;;16.50;;
25922;SDS011;13725;51.170;4.442;2023-01-29T16:25:24;37.72;;;18.35;;
25922;SDS011;13725;51.170;4.442;2023-01-29T16:27:51;40.00;;;17.02;;
25922;SDS011;13725;51.170;4.442;2023-01-29T16:30:19;45.33;;;18.75;;
25922;SDS011;13725;51.170;4.442;2023-01-29T16:32:50;41.28;;;17.88;;
25922;SDS011;13725;51.170;4.442;2023-01-29T16:35:16;36.65;;;17.30;;
25922;SDS011;13725;51.170;4.442;2023-01-29T16:37:45;39.28;;;16.80;;
25922;SDS011;13725;51.170;4.442;2023-01-29T16:40:15;47.40;;;17.40;;
25922;SDS011;13725;51.170;4.442;2023-01-29T16:43:05;38.38;;;16.77;;
25922;SDS011;13725;51.170;4.442;2023-01-29T16:45:59;41.65;;;16.98;;
25922;SDS011;13725;51.170;4.442;2023-01-29T16:48:31;39.63;;;17.67;;
25922;SDS011;13725;51.170;4.442;2023-01-29T16:51:05;42.90;;;17.88;;
25922;SDS011;13725;51.170;4.442;2023-01-29T16:53:38;41.42;;;18.45;;
25922;SDS011;13725;51.170;4.442;2023-01-29T16:56:06;40.47;;;16.73;;
25922;SDS011;13725;51.170;4.442;2023-01-29T16:58:33;41.55;;;17.85;;
25922;SDS011;13725;51.170;4.442;2023-01-29T17:01:09;42.53;;;18.20;;
25922;SDS011;13725;51.170;4.442;2023-01-29T17:03:35;41.70;;;17.38;;
25922;SDS011;13725;51.170;4.442;2023-01-29T17:06:08;45.25;;;18.15;;
25922;SDS011;13725;51.170;4.442;2023-01-29T17:08:36;48.60;;;19.90;;
25922;SDS011;13725;51.170;4.442;2023-01-29T17:11:02;47.13;;;18.60;;
25922;SDS011;13725;51.170;4.442;2023-01-29T17:18:46;45.95;;;19.33;;
25922;SDS011;13725;51.170;4.442;2023-01-29T17:21:12;44.72;;;19.30;;